Time;durP1;ratioP1;P1;durP2;ratioP2;P2;SDS_P1;SDS_P2;PMS_P1;PMS_P2;Temp;Humidity;BMP_temperature;BMP_pressure;BME280_temperature;BME280_humidity;BME280_pressure;Samples;Min_cycle;Max_cycle;Signal;HPM_P1;HPM_P2
2021/01/01 00:01:47;;;;;;;9.57;5.80;;;4.40;99.90;;;;;;5053855;28;20209;-63
2021/01/01 00:04:12;;;;;;;6.40;4.72;;;4.40;99.90;;;;;;5058650;28;20297;-63
2021/01/01 00:06:44;;;;;;;1.80;0.40;;;4.40;99.90;;;;;;5052239;28;20212;-64
2021/01/01 00:09:10;;;;;;;9.27;3.08;;;4.40;99.90;;;;;;5056043;28;20798;-63
2021/01/01 00:11:35;;;;;;;8.33;5.80;;;4.40;99.90;;;;;;5052613;28;20267;-63
2021/01/01 00:14:01;;;;;;;1.70;0.20;;;4.30;99.90;;;;;;5053805;28;20201;-64
2021/01/01 00:16:27;;;;;;;8.70;5.17;;;4.30;99.90;;;;;;5054977;28;20181;-63
2021/01/01 00:18:52;;;;;;;1.80;0.57;;;4.30;99.90;;;;;;5057584;28;20269;-65
2021/01/01 00:21:18;;;;;;;3.37;1.80;;;4.40;99.90;;;;;;5055255;28;20181;-63
2021/01/01 00:23:44;;;;;;;3.43;1.00;;;4.40;99.90;;;;;;5056685;28;20204;-64
2021/01/01 00:26:15;;;;;;;4.67;2.23;;;4.40;99.90;;;;;;5057114;28;20224;-64
2021/01/01 00:28:47;;;;;;;1.70;0.20;;;4.50;99.90;;;;;;5054309;28;20209;-65
2021/01/01 00:31:24;;;;;;;13.70;7.85;;;4.50;99.90;;;;;;5050516;28;20172;-63
2021/01/01 00:33:51;;;;;;;1.70;0.20;;;4.50;99.90;;;;;;5052913;28;20213;-66
2021/01/01 00:36:18;;;;;;;1.80;0.30;;;4.50;99.90;;;;;;5050709;28;20552;-63
2021/01/01 00:38:55;;;;;;;1.70;0.20;;;4.60;99.90;;;;;;5053132;28;20543;-63
2021/01/01 00:41:23;;;;;;;1.70;0.20;;;4.70;99.90;;;;;;5056777;28;20551;-62
2021/01/01 00:43:50;;;;;;;1.70;0.20;;;4.70;99.90;;;;;;5049256;28;20213;-62
2021/01/01 00:46:16;;;;;;;3.58;1.67;;;4.70;99.90;;;;;;5066706;28;20181;-62
2021/01/01 00:48:41;;;;;;;4.57;1.93;;;4.60;99.90;;;;;;5057881;28;20205;-62
2021/01/01 00:51:07;;;;;;;1.70;0.20;;;4.60;99.90;;;;;;5053835;28;20439;-62
2021/01/01 00:53:33;;;;;;;1.70;0.20;;;4.60;99.90;;;;;;5060670;28;20201;-62
2021/01/01 00:55:58;;;;;;;2.73;1.47;;;4.60;99.90;;;;;;5057411;28;20252;-62
2021/01/01 00:58:24;;;;;;;1.70;0.20;;;4.60;99.90;;;;;;5051464;28;20182;-63
2021/01/01 01:00:50;;;;;;;1.90;0.40;;;4.60;99.90;;;;;;5036729;28;20220;-62
2021/01/01 01:03:15;;;;;;;2.00;0.83;;;4.60;99.90;;;;;;5055057;28;20244;-62
2021/01/01 01:05:41;;;;;;;4.30;3.03;;;4.60;99.90;;;;;;5036616;28;20513;-62
2021/01/01 01:08:07;;;;;;;2.20;0.90;;;4.60;99.90;;;;;;5067313;28;20194;-63
2021/01/01 01:10:32;;;;;;;4.30;1.70;;;4.50;99.90;;;;;;5053479;28;20209;-62
2021/01/01 01:12:58;;;;;;;3.90;2.73;;;4.50;99.90;;;;;;5053459;28;20201;-62
2021/01/01 01:15:23;;;;;;;4.33;3.13;;;4.50;99.90;;;;;;5061826;28;20532;-62
2021/01/01 01:17:49;;;;;;;1.77;0.30;;;4.50;99.90;;;;;;5055927;28;20652;-62
2021/01/01 01:20:15;;;;;;;6.13;4.07;;;4.50;99.90;;;;;;5052769;28;20180;-62
2021/01/01 01:22:41;;;;;;;4.13;3.40;;;4.50;99.90;;;;;;5064192;28;20227;-62
2021/01/01 01:25:07;;;;;;;8.10;4.70;;;4.50;99.90;;;;;;5049762;28;20530;-62
2021/01/01 01:27:34;;;;;;;7.47;1.33;;;4.40;99.90;;;;;;5060471;28;20517;-62
2021/01/01 01:30:04;;;;;;;1.80;0.40;;;4.40;99.90;;;;;;5059315;28;20239;-62
2021/01/01 01:32:29;;;;;;;1.70;0.20;;;4.40;99.90;;;;;;5054430;28;20186;-63
2021/01/01 01:34:55;;;;;;;7.23;4.00;;;4.50;99.90;;;;;;5037990;28;20177;-62
2021/01/01 01:37:20;;;;;;;1.80;0.20;;;4.60;99.90;;;;;;5061083;28;20185;-62
2021/01/01 01:39:46;;;;;;;1.70;0.20;;;4.60;99.90;;;;;;5052339;28;20251;-62
2021/01/01 01:42:12;;;;;;;2.10;0.80;;;4.70;99.90;;;;;;5056320;28;20197;-62
2021/01/01 01:44:37;;;;;;;4.18;0.70;;;4.70;99.90;;;;;;5053398;28;20267;-63
2021/01/01 01:47:03;;;;;;;5.90;4.07;;;4.70;99.90;;;;;;5056945;28;20652;-62
2021/01/01 01:49:29;;;;;;;1.70;0.20;;;4.60;99.90;;;;;;5060989;28;20266;-62
2021/01/01 01:51:55;;;;;;;1.70;0.20;;;4.60;99.90;;;;;;5054808;28;20196;-63
2021/01/01 01:54:21;;;;;;;1.70;0.20;;;4.60;99.90;;;;;;5058197;28;20201;-62
2021/01/01 01:56:47;;;;;;;1.70;0.20;;;4.60;99.90;;;;;;5053615;28;20496;-62
2021/01/01 01:59:17;;;;;;;4.40;2.83;;;4.70;99.90;;;;;;5053477;28;20447;-63
2021/01/01 02:01:42;;;;;;;1.90;0.45;;;4.70;99.90;;;;;;5037787;28;20439;-62
2021/01/01 02:04:08;;;;;;;8.60;3.50;;;4.60;99.90;;;;;;5051736;28;20204;-62
2021/01/01 02:06:33;;;;;;;5.97;3.80;;;4.60;99.90;;;;;;5054308;28;20193;-63
2021/01/01 02:09:00;;;;;;;4.60;3.27;;;4.60;99.90;;;;;;5062890;28;20197;-62
2021/01/01 02:11:26;;;;;;;1.70;0.20;;;4.60;99.90;;;;;;5063974;28;20246;-63
2021/01/01 02:13:56;;;;;;;1.70;0.20;;;4.60;99.90;;;;;;5056614;28;20201;-62
2021/01/01 02:16:25;;;;;;;2.45;0.95;;;4.60;99.90;;;;;;5063280;28;20181;-63
2021/01/01 02:18:51;;;;;;;2.70;2.10;;;4.60;99.90;;;;;;5056134;28;20560;-63
2021/01/01 02:21:17;;;;;;;3.23;2.00;;;4.60;99.90;;;;;;5052542;28;20200;-62
2021/01/01 02:23:44;;;;;;;4.88;2.25;;;4.50;99.90;;;;;;5062738;28;20703;-62
2021/01/01 02:26:11;;;;;;;5.05;2.17;;;4.50;99.90;;;;;;5060739;28;20208;-62
2021/01/01 02:28:36;;;;;;;1.77;0.35;;;4.50;99.90;;;;;;5052609;28;20216;-62
2021/01/01 02:31:02;;;;;;;1.80;0.40;;;4.60;99.90;;;;;;5063019;28;20173;-63
2021/01/01 02:33:27;;;;;;;3.93;2.07;;;4.60;99.90;;;;;;5054196;28;20286;-62
2021/01/01 02:35:53;;;;;;;7.27;3.10;;;4.70;99.90;;;;;;5058460;28;20640;-63
2021/01/01 02:38:19;;;;;;;2.53;1.13;;;4.60;99.90;;;;;;5061136;28;20177;-63
2021/01/01 02:40:44;;;;;;;6.73;3.70;;;4.60;99.90;;;;;;5052490;28;20197;-62
2021/01/01 02:43:10;;;;;;;1.70;0.20;;;4.50;99.90;;;;;;5058149;28;20736;-62
2021/01/01 02:45:36;;;;;;;4.63;2.63;;;4.50;99.90;;;;;;5062513;28;20720;-62
2021/01/01 02:48:14;;;;;;;2.40;1.10;;;4.50;99.90;;;;;;5052850;28;20201;-62
2021/01/01 02:50:40;;;;;;;1.90;0.50;;;4.40;99.90;;;;;;5056229;28;20672;-63
2021/01/01 02:53:06;;;;;;;6.30;3.83;;;4.50;99.90;;;;;;5051712;28;20223;-63
2021/01/01 02:55:32;;;;;;;8.30;3.40;;;4.50;99.90;;;;;;5054772;28;20177;-62
2021/01/01 02:57:59;;;;;;;1.80;0.30;;;4.50;99.90;;;;;;5055915;28;20213;-63
2021/01/01 03:00:25;;;;;;;8.77;3.67;;;4.50;99.90;;;;;;5060996;28;20192;-63
2021/01/01 03:02:51;;;;;;;2.95;1.40;;;4.50;99.90;;;;;;5053402;28;20564;-62
2021/01/01 03:05:17;;;;;;;2.20;0.93;;;4.50;99.90;;;;;;5040051;28;20193;-62
2021/01/01 03:07:42;;;;;;;1.70;0.20;;;4.40;99.90;;;;;;5056276;28;20192;-62
2021/01/01 03:10:08;;;;;;;1.80;0.30;;;4.40;99.90;;;;;;5049676;28;20208;-62
2021/01/01 03:12:34;;;;;;;4.10;1.83;;;4.40;99.90;;;;;;5054966;28;20247;-62
2021/01/01 03:14:59;;;;;;;4.17;2.33;;;4.40;99.90;;;;;;5052062;28;20181;-63
2021/01/01 03:17:25;;;;;;;1.80;0.33;;;4.40;99.90;;;;;;5049568;28;20181;-62
2021/01/01 03:19:50;;;;;;;5.13;2.20;;;4.40;99.90;;;;;;5055263;28;20246;-62
2021/01/01 03:22:16;;;;;;;1.70;0.20;;;4.40;99.90;;;;;;5046967;28;20200;-62
2021/01/01 03:24:41;;;;;;;3.53;2.07;;;4.40;99.90;;;;;;5055294;28;20197;-63
2021/01/01 03:27:07;;;;;;;7.53;3.93;;;4.40;99.90;;;;;;5066295;28;20192;-63
2021/01/01 03:29:32;;;;;;;3.37;1.80;;;4.40;99.90;;;;;;5067937;28;20235;-64
2021/01/01 03:31:58;;;;;;;2.40;0.93;;;4.30;99.90;;;;;;5073503;28;20189;-63
2021/01/01 03:34:23;;;;;;;1.80;0.43;;;4.30;99.90;;;;;;5065439;28;20298;-63
2021/01/01 03:36:50;;;;;;;10.30;5.40;;;4.40;99.90;;;;;;5048475;28;20194;-63
2021/01/01 03:39:16;;;;;;;6.13;3.92;;;4.40;99.90;;;;;;5059121;28;20672;-63
2021/01/01 03:41:41;;;;;;;2.40;1.90;;;4.30;99.90;;;;;;5048808;28;20272;-63
2021/01/01 03:44:07;;;;;;;1.70;0.20;;;4.30;99.90;;;;;;5054085;28;20232;-63
2021/01/01 03:46:32;;;;;;;6.87;2.93;;;4.30;99.90;;;;;;5061250;28;20192;-63
2021/01/01 03:48:58;;;;;;;4.83;2.90;;;4.30;99.90;;;;;;5056521;28;20220;-63
2021/01/01 03:51:24;;;;;;;5.27;2.67;;;4.30;99.90;;;;;;5057181;28;20919;-63
2021/01/01 03:53:49;;;;;;;6.47;4.30;;;4.30;99.90;;;;;;5058589;28;20668;-63
2021/01/01 03:56:14;;;;;;;4.10;3.07;;;4.30;99.90;;;;;;5057496;28;20188;-63
2021/01/01 03:58:40;;;;;;;1.80;0.20;;;4.30;99.90;;;;;;5058395;28;20596;-63
2021/01/01 04:01:05;;;;;;;1.80;0.47;;;4.30;99.90;;;;;;5064262;28;20200;-63
2021/01/01 04:03:31;;;;;;;1.70;0.20;;;4.40;99.90;;;;;;5058423;28;20634;-63
2021/01/01 04:05:58;;;;;;;3.80;2.07;;;4.30;99.90;;;;;;5065056;28;20215;-63
2021/01/01 04:08:23;;;;;;;3.70;2.60;;;4.40;99.90;;;;;;5061616;28;20462;-63
2021/01/01 04:10:49;;;;;;;3.23;1.90;;;4.30;99.90;;;;;;5056297;28;20274;-63
2021/01/01 04:13:14;;;;;;;3.70;2.00;;;4.30;99.90;;;;;;5057591;28;20193;-63
2021/01/01 04:15:40;;;;;;;3.70;2.40;;;4.30;99.90;;;;;;5051571;28;20197;-62
2021/01/01 04:18:05;;;;;;;3.30;0.97;;;4.20;99.90;;;;;;5057245;28;20200;-63
2021/01/01 04:20:31;;;;;;;1.70;0.20;;;4.10;99.90;;;;;;5057621;28;20602;-62
2021/01/01 04:22:57;;;;;;;1.70;0.20;;;4.20;99.90;;;;;;5060943;28;20563;-62
2021/01/01 04:25:22;;;;;;;3.87;1.07;;;4.20;99.90;;;;;;5058425;28;20508;-62
2021/01/01 04:27:48;;;;;;;3.03;1.23;;;4.20;99.90;;;;;;5065523;28;20193;-62
2021/01/01 04:30:14;;;;;;;5.20;2.50;;;4.20;99.90;;;;;;5057753;28;20200;-62
2021/01/01 04:32:39;;;;;;;2.00;0.50;;;4.20;99.90;;;;;;5056927;28;20243;-62
2021/01/01 04:35:05;;;;;;;1.80;0.50;;;4.20;99.90;;;;;;5062512;28;20189;-62
2021/01/01 04:37:31;;;;;;;1.70;0.20;;;4.20;99.90;;;;;;5055623;28;20667;-62
2021/01/01 04:39:56;;;;;;;2.00;1.03;;;4.10;99.90;;;;;;5061402;28;20181;-62
2021/01/01 04:42:23;;;;;;;1.70;0.20;;;4.10;99.90;;;;;;5056864;28;20192;-62
2021/01/01 04:44:49;;;;;;;4.93;2.38;;;4.10;99.90;;;;;;5053709;28;20181;-62
2021/01/01 04:47:16;;;;;;;1.97;0.87;;;4.10;99.90;;;;;;5061965;28;20208;-62
2021/01/01 04:49:42;;;;;;;1.70;0.20;;;4.20;99.90;;;;;;5058759;28;20251;-62
2021/01/01 04:52:09;;;;;;;1.90;0.70;;;4.30;99.90;;;;;;5055858;28;20214;-62
2021/01/01 04:54:37;;;;;;;3.35;2.17;;;4.30;99.90;;;;;;5064065;28;21203;-63
2021/01/01 04:57:02;;;;;;;2.08;1.02;;;4.30;99.90;;;;;;5054298;28;20193;-63
2021/01/01 04:59:28;;;;;;;1.70;0.33;;;4.30;99.90;;;;;;5056506;28;20664;-62
2021/01/01 05:01:53;;;;;;;1.70;0.20;;;4.40;99.90;;;;;;5055734;28;20201;-62
2021/01/01 05:04:19;;;;;;;1.90;0.70;;;4.40;99.90;;;;;;5058092;28;20208;-63
2021/01/01 05:06:44;;;;;;;1.80;0.20;;;4.50;99.90;;;;;;5100328;22;20221;-59
2021/01/01 05:09:12;;;;;;;1.70;0.20;;;4.40;99.90;;;;;;5094372;28;20200;-59
2021/01/01 05:11:39;;;;;;;1.73;0.20;;;4.50;99.90;;;;;;5093630;28;20558;-59
2021/01/01 05:14:06;;;;;;;2.90;1.23;;;4.50;99.90;;;;;;5091801;28;20194;-60
2021/01/01 05:16:33;;;;;;;2.33;0.85;;;4.40;99.90;;;;;;5086636;28;20235;-60
2021/01/01 05:18:58;;;;;;;1.70;0.20;;;4.40;99.90;;;;;;5070684;28;20306;-59
2021/01/01 05:21:28;;;;;;;1.70;0.20;;;4.50;99.90;;;;;;5073164;28;20199;-60
2021/01/01 05:23:56;;;;;;;3.47;1.33;;;4.40;99.90;;;;;;5087067;28;20194;-60
2021/01/01 05:26:26;;;;;;;2.30;1.05;;;4.40;99.90;;;;;;5085765;28;20234;-60
2021/01/01 05:29:05;;;;;;;2.10;0.93;;;4.40;99.90;;;;;;5084585;28;20200;-60
2021/01/01 05:31:41;;;;;;;2.35;0.88;;;4.30;99.90;;;;;;5078901;28;20180;-60
2021/01/01 05:34:13;;;;;;;2.42;0.95;;;4.30;99.90;;;;;;5069454;28;20839;-59
2021/01/01 05:36:43;;;;;;;1.70;0.20;;;4.30;99.90;;;;;;5075680;28;20693;-59
2021/01/01 05:39:21;;;;;;;1.90;0.40;;;4.30;99.90;;;;;;5076501;28;20546;-59
2021/01/01 05:41:52;;;;;;;2.90;1.25;;;4.30;99.90;;;;;;5074867;28;20188;-60
2021/01/01 05:44:20;;;;;;;2.40;0.80;;;4.30;99.90;;;;;;5077825;28;20551;-59
2021/01/01 05:47:06;;;;;;;2.10;0.77;;;4.30;99.90;;;;;;5077705;28;20678;-60
2021/01/01 05:49:39;;;;;;;8.68;3.20;;;4.20;99.90;;;;;;5072445;28;20555;-59
2021/01/01 05:52:08;;;;;;;1.70;0.20;;;4.20;99.90;;;;;;5072873;28;20293;-60
2021/01/01 05:54:35;;;;;;;4.50;1.70;;;4.20;99.90;;;;;;5072397;28;20188;-60
2021/01/01 05:57:06;;;;;;;1.70;0.20;;;4.20;99.90;;;;;;5080043;28;20212;-60
2021/01/01 05:59:41;;;;;;;2.10;0.85;;;4.20;99.90;;;;;;5073278;28;20173;-60
2021/01/01 06:02:08;;;;;;;2.00;0.68;;;4.30;99.90;;;;;;5078652;28;20914;-59
2021/01/01 06:04:34;;;;;;;2.03;0.65;;;4.30;99.90;;;;;;5071235;28;20208;-60
2021/01/01 06:07:02;;;;;;;2.60;1.47;;;4.20;99.90;;;;;;5075086;28;20215;-60
2021/01/01 06:09:29;;;;;;;1.70;0.20;;;4.20;99.90;;;;;;5079153;28;20508;-60
2021/01/01 06:12:02;;;;;;;1.70;0.20;;;4.20;99.90;;;;;;5075580;28;20181;-60
2021/01/01 06:14:33;;;;;;;2.00;0.82;;;4.20;99.90;;;;;;5078592;28;20189;-60
2021/01/01 06:17:11;;;;;;;1.70;0.20;;;4.20;99.90;;;;;;5083259;28;20204;-60
2021/01/01 06:19:53;;;;;;;2.65;0.82;;;4.10;99.90;;;;;;5072862;28;20220;-58
2021/01/01 06:22:21;;;;;;;3.45;1.33;;;4.10;99.90;;;;;;5092791;28;20172;-60
2021/01/01 06:24:51;;;;;;;2.10;0.57;;;4.00;99.90;;;;;;5081631;28;20722;-60
2021/01/01 06:27:18;;;;;;;2.20;1.20;;;4.00;99.90;;;;;;5075551;28;20230;-60
2021/01/01 06:29:49;;;;;;;4.50;1.95;;;4.00;99.90;;;;;;5076327;28;20216;-60
2021/01/01 06:32:19;;;;;;;2.92;1.05;;;4.00;99.90;;;;;;5081288;28;20179;-60
2021/01/01 06:34:45;;;;;;;1.70;0.20;;;3.90;99.90;;;;;;5072305;28;20189;-60
2021/01/01 06:37:34;;;;;;;1.90;0.40;;;3.90;99.90;;;;;;5075305;28;20697;-60
2021/01/01 06:39:59;;;;;;;2.75;1.85;;;3.90;99.90;;;;;;5075849;28;20195;-59
2021/01/01 06:42:58;;;;;;;1.70;0.20;;;4.00;99.90;;;;;;5073809;28;20180;-59
2021/01/01 06:45:39;;;;;;;1.70;0.20;;;4.00;99.90;;;;;;5070839;28;20206;-60
2021/01/01 06:48:07;;;;;;;1.70;0.20;;;4.10;99.90;;;;;;5078409;28;20184;-60
2021/01/01 06:50:37;;;;;;;1.70;0.20;;;4.10;99.90;;;;;;5077945;28;20623;-60
2021/01/01 06:53:05;;;;;;;1.73;0.20;;;4.10;99.90;;;;;;5067986;28;20279;-59
2021/01/01 06:55:33;;;;;;;1.70;0.20;;;4.20;99.90;;;;;;5074587;28;20850;-59
2021/01/01 06:57:58;;;;;;;1.73;0.20;;;4.20;99.90;;;;;;5075417;28;20187;-60
2021/01/01 07:00:49;;;;;;;3.30;0.87;;;4.30;99.90;;;;;;5073037;28;20605;-59
2021/01/01 07:03:29;;;;;;;1.70;0.20;;;4.20;99.90;;;;;;5070003;28;20192;-60
2021/01/01 07:06:01;;;;;;;2.28;1.05;;;4.10;99.90;;;;;;5078508;28;20216;-60
2021/01/01 07:08:41;;;;;;;3.75;1.23;;;4.00;99.90;;;;;;5068923;28;20176;-60
2021/01/01 07:11:13;;;;;;;3.17;1.67;;;4.00;99.90;;;;;;5075006;28;20658;-60
2021/01/01 07:13:56;;;;;;;1.70;0.20;;;4.00;99.90;;;;;;5074625;28;20192;-61
2021/01/01 07:16:23;;;;;;;9.95;6.65;;;4.00;99.90;;;;;;5081568;28;20203;-60
2021/01/01 07:18:50;;;;;;;1.80;0.43;;;4.00;99.90;;;;;;5071328;28;20184;-60
2021/01/01 07:21:17;;;;;;;5.70;3.33;;;4.00;99.90;;;;;;5080697;28;20181;-58
2021/01/01 07:23:44;;;;;;;5.85;3.25;;;4.00;99.90;;;;;;5067615;28;20247;-60
2021/01/01 07:26:10;;;;;;;1.70;0.20;;;4.00;99.90;;;;;;5068776;28;20226;-60
2021/01/01 07:28:43;;;;;;;3.17;1.45;;;4.00;99.90;;;;;;5071362;28;20655;-60
2021/01/01 07:31:13;;;;;;;7.53;4.85;;;4.00;99.90;;;;;;5076921;28;20278;-60
2021/01/01 07:33:39;;;;;;;3.17;1.85;;;4.00;99.90;;;;;;5075740;28;20321;-59
2021/01/01 07:36:07;;;;;;;1.70;0.20;;;3.90;99.90;;;;;;5087353;28;20299;-59
2021/01/01 07:38:37;;;;;;;15.05;2.80;;;3.90;99.90;;;;;;5078458;28;20232;-60
2021/01/01 07:41:04;;;;;;;1.70;0.20;;;4.00;99.90;;;;;;5081099;28;20181;-59
2021/01/01 07:43:30;;;;;;;2.40;0.68;;;4.00;99.90;;;;;;5074304;28;20683;-60
2021/01/01 07:45:57;;;;;;;1.70;0.20;;;4.00;99.90;;;;;;5086920;28;20197;-59
2021/01/01 07:48:22;;;;;;;1.70;0.20;;;4.00;99.90;;;;;;5083206;28;20469;-59
2021/01/01 07:50:48;;;;;;;1.70;0.20;;;4.00;99.90;;;;;;5091025;28;20239;-60
2021/01/01 07:53:14;;;;;;;2.00;0.83;;;4.00;99.90;;;;;;5072452;28;20184;-59
2021/01/01 07:55:41;;;;;;;2.47;0.93;;;4.00;99.90;;;;;;5075536;28;20632;-63
2021/01/01 07:58:14;;;;;;;1.73;0.20;;;4.00;99.90;;;;;;5073845;28;20442;-60
2021/01/01 08:00:41;;;;;;;7.88;3.08;;;3.90;99.90;;;;;;5073853;28;20188;-60
2021/01/01 08:03:08;;;;;;;1.70;0.20;;;3.90;99.90;;;;;;5076104;28;20188;-60
2021/01/01 08:05:35;;;;;;;1.80;0.40;;;4.00;99.90;;;;;;5087754;28;20263;-59
2021/01/01 08:08:14;;;;;;;1.73;0.20;;;4.00;99.90;;;;;;5071426;28;20188;-60
2021/01/01 08:10:46;;;;;;;7.53;0.95;;;4.10;99.90;;;;;;5077124;28;20716;-60
2021/01/01 08:13:16;;;;;;;1.70;0.20;;;4.10;99.90;;;;;;5076750;28;20184;-60
2021/01/01 08:15:42;;;;;;;1.70;0.20;;;4.10;99.90;;;;;;5069037;28;20205;-60
2021/01/01 08:18:15;;;;;;;1.80;0.57;;;4.10;99.90;;;;;;5080853;28;20665;-60
2021/01/01 08:20:41;;;;;;;1.70;0.20;;;4.10;99.90;;;;;;5082363;28;20867;-59
2021/01/01 08:23:10;;;;;;;1.70;0.20;;;4.10;99.90;;;;;;5075800;28;20218;-60
2021/01/01 08:25:37;;;;;;;1.70;0.20;;;4.10;99.90;;;;;;5085329;28;20197;-59
2021/01/01 08:28:05;;;;;;;1.70;0.20;;;4.20;99.90;;;;;;5078464;28;20252;-59
2021/01/01 08:30:31;;;;;;;1.70;0.20;;;4.30;99.90;;;;;;5071792;28;20219;-60
2021/01/01 08:32:58;;;;;;;2.70;0.85;;;4.30;99.90;;;;;;5073093;28;20177;-60
2021/01/01 08:35:25;;;;;;;1.70;0.20;;;4.30;99.90;;;;;;5073297;28;20279;-60
2021/01/01 08:37:51;;;;;;;4.82;2.97;;;4.20;99.90;;;;;;5074334;28;20186;-60
2021/01/01 08:40:16;;;;;;;3.40;1.53;;;4.10;99.90;;;;;;5085595;28;20248;-60
2021/01/01 08:42:42;;;;;;;3.63;2.07;;;4.10;99.90;;;;;;5074462;28;20192;-59
2021/01/01 08:45:12;;;;;;;2.80;1.10;;;4.10;99.90;;;;;;5076633;28;20191;-59
2021/01/01 08:47:42;;;;;;;1.70;0.30;;;4.10;99.90;;;;;;5084176;28;20212;-60
2021/01/01 08:50:25;;;;;;;2.10;0.52;;;4.10;99.90;;;;;;5068414;28;20207;-60
2021/01/01 08:53:02;;;;;;;1.70;0.20;;;4.10;99.90;;;;;;5076449;28;20264;-60
2021/01/01 08:55:29;;;;;;;2.25;0.65;;;4.10;99.90;;;;;;5074315;28;20185;-60
2021/01/01 08:58:14;;;;;;;1.70;0.20;;;4.10;99.90;;;;;;5076777;28;20647;-59
2021/01/01 09:00:44;;;;;;;1.90;0.50;;;4.10;99.90;;;;;;5074350;28;20285;-60
2021/01/01 09:03:11;;;;;;;5.13;1.80;;;4.10;99.90;;;;;;5094165;28;20196;-59
2021/01/01 09:05:37;;;;;;;1.90;0.55;;;4.10;99.90;;;;;;5085152;28;20314;-60
2021/01/01 09:08:14;;;;;;;1.70;0.20;;;4.20;99.90;;;;;;5094297;28;20196;-60
2021/01/01 09:10:41;;;;;;;2.60;0.60;;;4.20;99.90;;;;;;5081334;28;20466;-60
2021/01/01 09:13:21;;;;;;;1.70;0.20;;;4.20;99.90;;;;;;5077729;28;20180;-60
2021/01/01 09:16:02;;;;;;;2.45;0.77;;;4.30;99.90;;;;;;5069765;28;20219;-59
2021/01/01 09:18:28;;;;;;;1.70;0.20;;;4.40;99.90;;;;;;5071991;28;20597;-60
2021/01/01 09:21:17;;;;;;;1.70;0.20;;;4.40;99.90;;;;;;5079426;28;20188;-60
2021/01/01 09:23:53;;;;;;;1.70;0.30;;;4.40;99.90;;;;;;5072160;28;20254;-60
2021/01/01 09:26:26;;;;;;;4.15;1.33;;;4.30;99.90;;;;;;5067253;28;20590;-60
2021/01/01 09:29:05;;;;;;;1.80;0.20;;;4.30;99.90;;;;;;5088611;28;20290;-60
2021/01/01 09:31:32;;;;;;;1.70;0.20;;;4.30;99.90;;;;;;5069823;28;20177;-59
2021/01/01 09:34:00;;;;;;;1.73;0.20;;;4.30;99.90;;;;;;5073258;28;20659;-59
2021/01/01 09:36:25;;;;;;;1.73;0.20;;;4.30;99.90;;;;;;5075461;28;20578;-60
2021/01/01 09:38:51;;;;;;;1.73;0.30;;;4.30;99.90;;;;;;5069707;28;20181;-60
2021/01/01 09:41:17;;;;;;;1.70;0.20;;;4.30;99.90;;;;;;5077162;28;20176;-60
2021/01/01 09:43:45;;;;;;;1.70;0.20;;;4.30;99.90;;;;;;5085017;28;20571;-60
2021/01/01 09:46:11;;;;;;;7.20;3.10;;;4.30;99.90;;;;;;5069198;28;20216;-60
2021/01/01 09:48:37;;;;;;;4.27;2.40;;;4.20;99.90;;;;;;5076116;28;20177;-59
2021/01/01 09:51:02;;;;;;;2.67;1.47;;;4.10;99.90;;;;;;5075827;28;20191;-60
2021/01/01 09:53:28;;;;;;;1.77;0.30;;;4.20;99.90;;;;;;5069904;28;20436;-60
2021/01/01 09:55:54;;;;;;;1.90;0.60;;;4.20;99.90;;;;;;5079908;28;20616;-62
2021/01/01 09:58:19;;;;;;;2.23;0.90;;;4.20;99.90;;;;;;5081427;28;20180;-60
2021/01/01 10:00:45;;;;;;;1.70;0.20;;;4.30;99.90;;;;;;5065963;28;20536;-60
2021/01/01 10:03:11;;;;;;;3.90;3.50;;;4.40;99.90;;;;;;5093876;28;20181;-60
2021/01/01 10:05:36;;;;;;;1.70;0.30;;;4.60;99.90;;;;;;5086308;28;20216;-65
2021/01/01 10:08:02;;;;;;;2.00;0.83;;;4.60;99.90;;;;;;5077206;28;20184;-59
2021/01/01 10:10:32;;;;;;;1.80;0.30;;;4.60;99.90;;;;;;5072944;28;20701;-59
2021/01/01 10:12:58;;;;;;;1.80;0.20;;;4.60;99.90;;;;;;5073915;28;20655;-60
2021/01/01 10:15:24;;;;;;;2.35;0.50;;;4.60;99.90;;;;;;5080530;28;20176;-60
2021/01/01 10:17:49;;;;;;;2.87;1.03;;;4.70;99.90;;;;;;5080269;28;20185;-60
2021/01/01 10:20:15;;;;;;;1.70;0.20;;;4.60;99.90;;;;;;5073032;28;20218;-59
2021/01/01 10:22:40;;;;;;;4.13;2.00;;;4.60;99.90;;;;;;5077429;28;20730;-62
2021/01/01 10:25:06;;;;;;;1.70;0.20;;;4.70;99.90;;;;;;5077013;28;20206;-60
2021/01/01 10:27:31;;;;;;;2.20;0.53;;;4.70;99.90;;;;;;5072687;28;20200;-60
2021/01/01 10:29:57;;;;;;;1.70;0.20;;;4.60;99.90;;;;;;5075371;28;20465;-59
2021/01/01 10:32:22;;;;;;;2.43;0.67;;;4.60;99.90;;;;;;5076269;28;20184;-60
2021/01/01 10:34:48;;;;;;;1.70;0.20;;;4.60;99.90;;;;;;5068915;28;20254;-60
2021/01/01 10:37:13;;;;;;;1.70;0.20;;;4.50;99.90;;;;;;5079668;28;20647;-64
2021/01/01 10:39:39;;;;;;;1.70;0.20;;;4.60;99.90;;;;;;5073526;28;20200;-60
2021/01/01 10:42:06;;;;;;;1.70;0.20;;;4.60;99.90;;;;;;5071266;28;20191;-60
2021/01/01 10:44:32;;;;;;;3.53;1.42;;;4.60;99.90;;;;;;5068251;28;20183;-59
2021/01/01 10:46:59;;;;;;;3.43;2.27;;;4.60;99.90;;;;;;5079978;28;20212;-60
2021/01/01 10:49:25;;;;;;;4.43;1.77;;;4.50;99.90;;;;;;5077779;28;21024;-60
2021/01/01 10:51:56;;;;;;;1.80;0.32;;;4.40;99.90;;;;;;5080185;28;20531;-60
2021/01/01 10:54:21;;;;;;;2.35;0.90;;;4.40;99.90;;;;;;5068033;28;20186;-63
2021/01/01 10:56:47;;;;;;;6.53;4.90;;;4.40;99.90;;;;;;5071887;28;20287;-59
2021/01/01 10:59:13;;;;;;;1.70;0.20;;;4.30;99.90;;;;;;5069938;28;20191;-60
2021/01/01 11:01:39;;;;;;;3.45;1.98;;;4.30;99.90;;;;;;5076146;28;20250;-60
2021/01/01 11:04:04;;;;;;;1.80;0.30;;;4.40;99.90;;;;;;5071104;28;20189;-59
2021/01/01 11:06:38;;;;;;;1.70;0.20;;;4.40;99.90;;;;;;5071558;28;20216;-60
2021/01/01 11:09:03;;;;;;;5.10;2.25;;;4.50;99.90;;;;;;5067814;28;20296;-60
2021/01/01 11:11:29;;;;;;;1.90;0.67;;;4.50;99.90;;;;;;5073235;28;20224;-60
2021/01/01 12:25:14;;;;;;;5.22;2.80;;;4.50;99.90;;;;;;5094833;28;20199;-59
2021/01/01 12:27:41;;;;;;;1.70;0.20;;;4.50;99.90;;;;;;5081153;28;20204;-60
2021/01/01 12:30:07;;;;;;;3.17;1.75;;;4.40;99.90;;;;;;5078140;28;20216;-59
2021/01/01 12:32:34;;;;;;;3.20;1.60;;;4.40;99.90;;;;;;5072824;28;20181;-59
2021/01/01 12:35:00;;;;;;;1.80;0.30;;;4.40;99.90;;;;;;5071079;28;20185;-59
2021/01/01 12:37:26;;;;;;;1.80;0.40;;;4.30;99.90;;;;;;5071558;28;20536;-58
2021/01/01 12:39:52;;;;;;;1.77;0.30;;;4.40;99.90;;;;;;5078805;28;20275;-58
2021/01/01 12:42:19;;;;;;;3.03;1.57;;;4.40;99.90;;;;;;5078956;28;20216;-60
2021/01/01 12:44:45;;;;;;;2.05;0.32;;;4.40;99.90;;;;;;5078459;28;20575;-59
2021/01/01 12:47:11;;;;;;;2.28;0.90;;;4.40;99.90;;;;;;5073732;28;20208;-62
2021/01/01 12:49:37;;;;;;;2.10;1.00;;;4.30;99.90;;;;;;5079220;28;20207;-60
2021/01/01 12:52:02;;;;;;;1.70;0.20;;;4.40;99.90;;;;;;5074151;28;20991;-58
2021/01/01 12:54:28;;;;;;;1.80;0.40;;;4.40;99.90;;;;;;5071245;28;20184;-58
2021/01/01 12:56:54;;;;;;;1.77;0.30;;;4.50;99.90;;;;;;5083295;28;20288;-58
2021/01/01 12:59:19;;;;;;;1.70;0.20;;;4.40;99.90;;;;;;5077708;28;20180;-58
2021/01/01 13:01:44;;;;;;;3.10;1.70;;;4.40;99.90;;;;;;5071298;28;20658;-58
2021/01/01 13:04:10;;;;;;;1.80;0.47;;;4.50;99.90;;;;;;5079139;28;20186;-58
2021/01/01 13:06:35;;;;;;;1.83;0.50;;;4.50;99.90;;;;;;5069436;28;20699;-58
2021/01/01 13:09:02;;;;;;;2.70;2.50;;;4.60;99.90;;;;;;5073895;28;20197;-58
2021/01/01 13:11:31;;;;;;;3.10;2.13;;;4.60;99.90;;;;;;5075621;28;20185;-59
2021/01/01 13:14:00;;;;;;;1.70;0.20;;;4.60;99.90;;;;;;5076865;28;20196;-59
2021/01/01 13:16:27;;;;;;;2.22;0.55;;;4.60;99.90;;;;;;5066879;28;20201;-57
2021/01/01 13:18:54;;;;;;;3.95;1.52;;;4.60;99.90;;;;;;5078208;28;20318;-58
2021/01/01 13:21:32;;;;;;;3.20;1.02;;;4.60;99.90;;;;;;5069915;28;20173;-59
2021/01/01 13:23:59;;;;;;;4.07;1.52;;;4.60;99.90;;;;;;5073663;28;20817;-58
2021/01/01 13:26:26;;;;;;;1.70;0.20;;;4.50;99.90;;;;;;5075654;28;20219;-58
2021/01/01 13:28:52;;;;;;;1.73;0.20;;;4.60;99.90;;;;;;5075009;28;20196;-58
2021/01/01 13:31:18;;;;;;;1.73;0.30;;;4.60;99.90;;;;;;5079337;28;20249;-58
2021/01/01 13:33:44;;;;;;;1.70;0.20;;;4.70;99.90;;;;;;5079951;28;20184;-58
2021/01/01 13:36:18;;;;;;;1.70;0.20;;;4.70;99.90;;;;;;5072146;28;20449;-58
2021/01/01 13:38:44;;;;;;;5.00;1.48;;;4.80;99.90;;;;;;5073475;28;20271;-59
2021/01/01 13:41:10;;;;;;;3.55;0.52;;;4.80;99.90;;;;;;5079497;28;20156;-60
2021/01/01 13:43:43;;;;;;;2.55;1.15;;;4.70;99.90;;;;;;5070061;28;20193;-58
2021/01/01 13:46:17;;;;;;;1.73;0.20;;;4.70;99.90;;;;;;5080545;28;20204;-58
2021/01/01 13:48:43;;;;;;;4.43;3.22;;;4.70;99.90;;;;;;5075272;28;20177;-59
2021/01/01 13:51:08;;;;;;;2.07;0.70;;;4.80;99.90;;;;;;5073302;28;20256;-58
2021/01/01 13:53:34;;;;;;;3.50;1.73;;;4.70;99.90;;;;;;5074223;28;20766;-58
2021/01/01 13:56:00;;;;;;;2.10;1.00;;;4.70;99.90;;;;;;5071146;28;20200;-58
2021/01/01 13:58:25;;;;;;;3.30;0.70;;;4.60;99.90;;;;;;5073125;28;20655;-59
2021/01/01 14:00:51;;;;;;;5.60;3.10;;;4.60;99.90;;;;;;5073590;28;20196;-58
2021/01/01 14:03:18;;;;;;;1.70;0.20;;;4.60;99.90;;;;;;5071973;28;20184;-58
2021/01/01 14:05:50;;;;;;;1.70;0.30;;;4.70;99.90;;;;;;5070904;28;20216;-61
2021/01/01 14:08:16;;;;;;;2.45;0.65;;;4.70;99.90;;;;;;5080888;28;20206;-58
2021/01/01 14:10:43;;;;;;;1.80;0.40;;;4.70;99.90;;;;;;5077480;28;20204;-59
2021/01/01 14:13:09;;;;;;;2.65;1.20;;;4.70;99.90;;;;;;5074518;28;20180;-58